createdAt,value
2024-01-19T00:02:18.830Z,-1.88
2024-01-19T00:04:46.179Z,-1.92
2024-01-19T00:07:14.070Z,-1.94
2024-01-19T00:09:41.105Z,-1.95
2024-01-19T00:12:08.451Z,-1.96
2024-01-19T00:14:35.876Z,-1.96
2024-01-19T00:17:03.037Z,-1.97
2024-01-19T00:19:30.040Z,-1.99
2024-01-19T00:21:57.263Z,-1.99
2024-01-19T00:24:24.477Z,-2.01
2024-01-19T00:26:52.533Z,-2.02
2024-01-19T00:29:19.761Z,-2.00
2024-01-19T00:31:48.449Z,-1.98
2024-01-19T00:34:17.227Z,-1.95
2024-01-19T00:36:44.824Z,-1.93
2024-01-19T00:39:12.078Z,-1.94
2024-01-19T00:41:39.550Z,-1.93
2024-01-19T00:44:06.812Z,-1.92
2024-01-19T00:46:34.046Z,-1.95
2024-01-19T00:49:01.400Z,-1.95
2024-01-19T00:51:28.838Z,-1.96
2024-01-19T00:53:56.165Z,-1.96
2024-01-19T00:56:23.673Z,-1.94
2024-01-19T00:58:50.985Z,-1.95
2024-01-19T01:01:18.274Z,-1.97
2024-01-19T01:03:46.070Z,-2.00
2024-01-19T01:06:13.364Z,-2.00
2024-01-19T01:08:40.910Z,-1.98
2024-01-19T01:11:10.213Z,-1.96
2024-01-19T01:13:37.683Z,-1.94
2024-01-19T01:16:05.119Z,-1.93
2024-01-19T01:18:32.348Z,-1.92
2024-01-19T01:20:59.661Z,-1.95
2024-01-19T01:23:27.164Z,-1.98
2024-01-19T01:25:54.598Z,-2.00
2024-01-19T01:28:21.830Z,-2.01
2024-01-19T01:30:49.095Z,-2.01
2024-01-19T01:33:17.000Z,-2.02
2024-01-19T01:35:44.681Z,-2.02
2024-01-19T01:38:13.037Z,-2.04
2024-01-19T01:40:40.289Z,-2.07
2024-01-19T01:43:07.937Z,-2.10
2024-01-19T01:45:35.495Z,-2.11
2024-01-19T01:48:03.523Z,-2.12
2024-01-19T01:50:31.434Z,-2.12
2024-01-19T01:52:59.183Z,-2.13
2024-01-19T01:55:26.893Z,-2.11
2024-01-19T01:57:54.457Z,-2.14
2024-01-19T02:04:06.094Z,-2.17
2024-01-19T02:06:54.663Z,-2.21
2024-01-19T02:09:55.750Z,-2.23
2024-01-19T02:12:53.707Z,-2.23
2024-01-19T02:16:01.716Z,-2.27
2024-01-19T02:18:49.883Z,-2.31
2024-01-19T02:21:50.177Z,-2.32
2024-01-19T02:24:20.317Z,-2.31
2024-01-19T02:27:47.183Z,-2.33
2024-01-19T02:31:14.077Z,-2.38
2024-01-19T02:34:41.413Z,-2.45
2024-01-19T02:37:40.842Z,-2.50
2024-01-19T02:40:57.421Z,-2.54
2024-01-19T02:44:22.376Z,-2.62
2024-01-19T02:47:49.568Z,-2.68
2024-01-19T02:50:45.698Z,-2.74
2024-01-19T02:54:12.842Z,-2.76
2024-01-19T02:57:44.134Z,-2.80
2024-01-19T03:01:11.179Z,-2.83
2024-01-19T03:04:58.044Z,-2.86
2024-01-19T03:08:30.461Z,-2.83
2024-01-19T03:12:01.832Z,-2.81
2024-01-19T03:15:48.613Z,-2.79
2024-01-19T03:19:35.493Z,-2.81
2024-01-19T03:23:06.078Z,-2.81
2024-01-19T03:26:33.491Z,-2.83
2024-01-19T03:30:00.609Z,-2.79
2024-01-19T03:33:28.015Z,-2.77
2024-01-19T03:37:14.572Z,-2.79
2024-01-19T03:40:41.499Z,-2.80
2024-01-19T03:43:51.317Z,-2.81
2024-01-19T03:47:38.319Z,-2.80
2024-01-19T03:51:09.041Z,-2.84
2024-01-19T03:54:37.159Z,-2.84
2024-01-19T03:58:27.295Z,-2.81
2024-01-19T04:02:00.945Z,-2.76
2024-01-19T04:05:48.403Z,-2.70
2024-01-19T04:09:35.184Z,-2.72
2024-01-19T04:13:02.683Z,-2.74
2024-01-19T04:16:49.441Z,-2.78
2024-01-19T04:20:36.646Z,-2.84
2024-01-19T04:24:23.359Z,-2.87
2024-01-19T04:27:51.126Z,-2.91
2024-01-19T04:30:59.564Z,-2.92
2024-01-19T04:34:46.470Z,-2.96
2024-01-19T04:38:26.884Z,-3.02
2024-01-19T04:42:13.674Z,-3.03
2024-01-19T04:46:00.786Z,-3.06
2024-01-19T04:49:29.143Z,-3.13
2024-01-19T04:52:59.237Z,-3.17
2024-01-19T04:56:37.975Z,-3.26
2024-01-19T05:00:04.855Z,-3.27
2024-01-19T05:03:51.814Z,-3.25
2024-01-19T05:07:18.676Z,-3.28
2024-01-19T05:10:46.152Z,-3.32
2024-01-19T05:14:13.446Z,-3.32
2024-01-19T05:18:00.324Z,-3.35
2024-01-19T05:21:35.934Z,-3.35
2024-01-19T05:25:03.397Z,-3.34
2024-01-19T05:28:53.164Z,-3.33
2024-01-19T05:32:22.619Z,-3.32
2024-01-19T05:35:49.865Z,-3.31
2024-01-19T05:39:16.770Z,-3.30
2024-01-19T05:43:05.908Z,-3.34
2024-01-19T05:46:51.690Z,-3.32
2024-01-19T05:50:38.612Z,-3.28
2024-01-19T05:54:25.303Z,-3.28
2024-01-19T05:58:12.652Z,-3.30
2024-01-19T06:01:59.518Z,-3.30
2024-01-19T06:05:49.541Z,-3.32
2024-01-19T06:09:36.518Z,-3.30
2024-01-19T06:17:08.290Z,-3.45
2024-01-19T06:20:55.369Z,-3.48
2024-01-19T06:24:42.693Z,-3.51
2024-01-19T06:28:30.271Z,-3.58
2024-01-19T06:32:17.368Z,-3.59
2024-01-19T06:36:05.241Z,-3.59
2024-01-19T06:39:52.701Z,-3.63
2024-01-19T06:43:39.855Z,-3.65
2024-01-19T06:47:28.880Z,-3.64
2024-01-19T06:51:16.196Z,-3.60
2024-01-19T06:55:03.029Z,-3.57
2024-01-19T06:58:49.971Z,-3.53
2024-01-19T07:02:37.129Z,-3.53
2024-01-19T07:06:29.892Z,-3.54
2024-01-19T07:10:16.861Z,-3.52
2024-01-19T07:14:03.601Z,-3.51
2024-01-19T07:17:51.935Z,-3.52
2024-01-19T07:21:26.247Z,-3.52
2024-01-19T07:25:13.289Z,-3.54
2024-01-19T07:29:03.465Z,-3.55
2024-01-19T07:33:01.318Z,-3.55
2024-01-19T07:36:38.539Z,-3.54
2024-01-19T07:40:06.156Z,-3.55
2024-01-19T07:43:54.507Z,-3.60
2024-01-19T07:51:08.458Z,-3.56
2024-01-19T07:54:35.933Z,-3.54
2024-01-19T07:58:22.858Z,-3.55
2024-01-19T08:02:09.723Z,-3.54
2024-01-19T08:05:56.987Z,-3.54
2024-01-19T08:09:43.756Z,-3.50
2024-01-19T08:13:14.132Z,-3.46
2024-01-19T08:17:01.904Z,-3.39
2024-01-19T08:20:48.981Z,-3.29
2024-01-19T08:24:35.801Z,-3.23
2024-01-19T08:28:23.187Z,-3.20
2024-01-19T08:32:14.703Z,-3.20
2024-01-19T08:36:02.260Z,-3.18
2024-01-19T08:39:49.285Z,-3.23
2024-01-19T08:43:36.495Z,-3.25
2024-01-19T08:46:26.648Z,-3.30
2024-01-19T08:49:57.174Z,-3.31
2024-01-19T08:53:26.108Z,-3.24
2024-01-19T08:56:38.748Z,-3.21
2024-01-19T08:59:08.222Z,-3.04
2024-01-19T09:01:35.805Z,-2.94
2024-01-19T09:04:03.338Z,-2.83
2024-01-19T09:06:31.146Z,-2.77
2024-01-19T09:09:02.784Z,-2.70
2024-01-19T09:11:30.859Z,-2.68
2024-01-19T09:13:58.300Z,-2.68
2024-01-19T09:16:25.559Z,-2.63
2024-01-19T09:18:53.144Z,-2.57
2024-01-19T09:21:20.887Z,-2.48
2024-01-19T09:23:48.118Z,-2.46
2024-01-19T09:26:22.536Z,-2.47
2024-01-19T09:28:51.862Z,-2.39
2024-01-19T09:31:19.333Z,-2.32
2024-01-19T09:33:47.167Z,-2.30
2024-01-19T09:36:15.192Z,-2.24
2024-01-19T09:38:44.652Z,-2.18
2024-01-19T09:41:33.989Z,-2.19
2024-01-19T09:44:03.654Z,-2.12
2024-01-19T09:46:31.104Z,-2.06
2024-01-19T09:49:21.625Z,-2.00
2024-01-19T09:52:12.606Z,-1.93
2024-01-19T09:54:41.759Z,-1.77
2024-01-19T09:57:08.899Z,-1.64
2024-01-19T09:59:36.130Z,-1.59
2024-01-19T10:02:03.942Z,-1.58
2024-01-19T10:04:31.540Z,-1.58
2024-01-19T10:06:58.913Z,-1.65
2024-01-19T10:09:26.575Z,-1.64
2024-01-19T10:11:55.769Z,-1.55
2024-01-19T10:14:33.328Z,-1.44
2024-01-19T10:17:02.689Z,-1.36
2024-01-19T10:19:32.816Z,-1.26
2024-01-19T10:22:29.499Z,-1.27
2024-01-19T10:25:09.895Z,-1.23
2024-01-19T10:27:54.696Z,-1.27
2024-01-19T10:30:31.649Z,-1.38
2024-01-19T10:33:08.885Z,-1.42
2024-01-19T10:35:41.455Z,-1.37
2024-01-19T10:38:11.163Z,-1.32
2024-01-19T10:40:38.335Z,-1.33
2024-01-19T10:43:08.594Z,-1.38
2024-01-19T10:45:39.981Z,-1.31
2024-01-19T10:48:08.811Z,-1.26
2024-01-19T10:50:36.807Z,-1.21
2024-01-19T10:53:14.080Z,-1.16
2024-01-19T10:55:49.993Z,-1.04
2024-01-19T10:58:21.625Z,-1.07
2024-01-19T11:00:48.844Z,-1.06
2024-01-19T11:03:18.825Z,-0.98
2024-01-19T11:05:49.031Z,-0.82
2024-01-19T11:08:16.453Z,-0.73
2024-01-19T11:10:48.887Z,-0.72
2024-01-19T11:13:19.733Z,-0.79
2024-01-19T11:15:50.821Z,-0.89
2024-01-19T11:18:18.330Z,-0.92
2024-01-19T11:20:46.375Z,-0.96
2024-01-19T11:23:14.681Z,-1.00
2024-01-19T11:26:01.360Z,-1.01
2024-01-19T11:28:51.793Z,-0.95
2024-01-19T11:31:34.439Z,-0.95
2024-01-19T11:34:02.683Z,-0.92
2024-01-19T11:36:45.295Z,-0.95
2024-01-19T11:39:15.531Z,-0.95
2024-01-19T11:41:46.238Z,-0.88
2024-01-19T11:44:44.852Z,-0.77
2024-01-19T11:47:38.214Z,-0.60
2024-01-19T11:50:07.665Z,-0.52
2024-01-19T11:52:43.311Z,-0.49
2024-01-19T11:55:34.098Z,-0.47
2024-01-19T11:58:26.618Z,-0.41
2024-01-19T12:00:59.744Z,-0.39
2024-01-19T12:03:28.938Z,-0.42
2024-01-19T12:06:02.203Z,-0.41
2024-01-19T12:08:32.679Z,-0.42
2024-01-19T12:11:12.900Z,-0.39
2024-01-19T12:13:49.168Z,-0.29
2024-01-19T12:16:27.297Z,-0.26
2024-01-19T12:18:59.040Z,-0.26
2024-01-19T12:21:30.061Z,-0.26
2024-01-19T12:23:59.079Z,-0.30
2024-01-19T12:26:29.169Z,-0.39
2024-01-19T12:28:59.076Z,-0.51
2024-01-19T12:31:38.666Z,-0.60
2024-01-19T12:34:17.541Z,-0.55
2024-01-19T12:36:47.644Z,-0.57
2024-01-19T12:39:19.269Z,-0.64
2024-01-19T12:42:11.732Z,-0.68
2024-01-19T12:44:39.100Z,-0.81
2024-01-19T12:47:06.651Z,-0.85
2024-01-19T12:49:40.175Z,-0.87
2024-01-19T12:52:13.420Z,-0.92
2024-01-19T12:54:46.579Z,-0.90
2024-01-19T12:57:20.643Z,-0.87
2024-01-19T13:00:13.319Z,-0.92
2024-01-19T13:02:43.297Z,-1.06
2024-01-19T13:05:21.602Z,-1.11
2024-01-19T13:07:53.497Z,-1.02
2024-01-19T13:10:23.573Z,-1.03
2024-01-19T13:13:04.755Z,-1.05
2024-01-19T13:15:35.728Z,-1.11
2024-01-19T13:18:19.762Z,-1.12
2024-01-19T13:20:47.261Z,-1.15
2024-01-19T13:23:15.082Z,-1.20
2024-01-19T13:25:56.759Z,-1.19
2024-01-19T13:28:24.066Z,-1.22
2024-01-19T13:30:51.713Z,-1.24
2024-01-19T13:34:19.650Z,-1.22
2024-01-19T13:38:06.974Z,-1.20
2024-01-19T13:41:55.493Z,-1.20
2024-01-19T13:45:43.267Z,-1.27
2024-01-19T13:49:31.093Z,-1.39
2024-01-19T13:53:18.693Z,-1.37
2024-01-19T13:57:06.389Z,-1.42
2024-01-19T14:00:56.812Z,-1.51
2024-01-19T14:04:44.569Z,-1.50
2024-01-19T14:08:33.853Z,-1.54
2024-01-19T14:12:22.720Z,-1.49
2024-01-19T14:16:13.504Z,-1.50
2024-01-19T14:20:01.293Z,-1.58
2024-01-19T14:23:51.251Z,-1.62
2024-01-19T14:27:41.702Z,-1.66
2024-01-19T14:31:29.532Z,-1.71
2024-01-19T14:35:17.896Z,-1.86
2024-01-19T14:39:05.905Z,-1.95
2024-01-19T14:42:59.997Z,-2.08
2024-01-19T14:46:45.371Z,-2.15
2024-01-19T14:50:39.052Z,-2.31
2024-01-19T14:54:26.900Z,-2.38
2024-01-19T14:58:14.700Z,-2.58
2024-01-19T15:02:02.863Z,-2.75
2024-01-19T15:05:50.798Z,-2.85
2024-01-19T15:09:38.590Z,-3.03
2024-01-19T15:13:26.687Z,-3.16
2024-01-19T15:17:17.428Z,-3.32
2024-01-19T15:21:06.870Z,-3.44
2024-01-19T15:24:54.653Z,-3.47
2024-01-19T15:28:43.646Z,-3.48
2024-01-19T15:32:35.784Z,-3.50
2024-01-19T15:36:22.742Z,-3.64
2024-01-19T15:40:11.335Z,-3.63
2024-01-19T15:43:07.804Z,-3.75
2024-01-19T15:46:55.103Z,-3.84
2024-01-19T15:50:20.526Z,-3.92
2024-01-19T15:53:36.696Z,-4.01
2024-01-19T15:56:39.281Z,-4.00
2024-01-19T16:00:26.813Z,-4.03
2024-01-19T16:04:17.603Z,-4.15
2024-01-19T16:08:05.365Z,-4.33
2024-01-19T16:11:53.309Z,-4.42
2024-01-19T16:15:41.279Z,-4.50
2024-01-19T16:19:29.199Z,-4.52
2024-01-19T16:23:17.083Z,-4.63
2024-01-19T16:27:05.066Z,-4.64
2024-01-19T16:30:53.450Z,-4.75
2024-01-19T16:34:41.576Z,-4.76
2024-01-19T16:38:32.166Z,-4.79
2024-01-19T16:42:23.660Z,-4.88
2024-01-19T16:46:12.468Z,-4.90
2024-01-19T16:50:03.176Z,-4.90
2024-01-19T16:53:50.983Z,-4.82
2024-01-19T16:57:41.590Z,-4.69
2024-01-19T17:01:30.795Z,-4.62
2024-01-19T17:05:18.968Z,-4.55
2024-01-19T17:09:07.780Z,-4.47
2024-01-19T17:12:57.015Z,-4.43
2024-01-19T17:16:25.757Z,-4.34
2024-01-19T17:20:13.228Z,-4.19
2024-01-19T17:24:09.375Z,-4.05
2024-01-19T17:27:57.253Z,-3.93
2024-01-19T17:31:46.468Z,-3.83
2024-01-19T17:35:34.837Z,-3.75
2024-01-19T17:39:30.452Z,-3.71
2024-01-19T17:43:16.648Z,-3.65
2024-01-19T17:47:10.503Z,-3.60
2024-01-19T17:50:58.634Z,-3.58
2024-01-19T17:54:46.753Z,-3.53
2024-01-19T17:58:35.212Z,-3.49
2024-01-19T18:02:24.369Z,-3.45
2024-01-19T18:06:12.015Z,-3.42
2024-01-19T18:10:05.299Z,-3.39
2024-01-19T18:13:54.551Z,-3.36
2024-01-19T18:17:44.698Z,-3.33
2024-01-19T18:21:47.129Z,-3.31
2024-01-19T18:25:39.975Z,-3.27
2024-01-19T18:29:27.618Z,-3.26
2024-01-19T18:33:17.772Z,-3.26
2024-01-19T18:37:06.919Z,-3.27
2024-01-19T18:44:41.615Z,-3.22
2024-01-19T18:48:29.355Z,-3.20
2024-01-19T18:52:17.615Z,-3.18
2024-01-19T18:56:05.515Z,-3.14
2024-01-19T18:59:53.892Z,-3.13
2024-01-19T19:03:44.052Z,-3.11
2024-01-19T19:06:19.141Z,-3.08
2024-01-19T19:08:51.398Z,-3.06
2024-01-19T19:11:19.901Z,-3.04
2024-01-19T19:13:49.465Z,-3.03
2024-01-19T19:16:26.356Z,-3.02
2024-01-19T19:19:02.907Z,-3.02
2024-01-19T19:21:30.176Z,-3.04
2024-01-19T19:23:58.153Z,-3.03
2024-01-19T19:26:25.441Z,-3.04
2024-01-19T19:28:55.623Z,-3.03
2024-01-19T19:31:22.794Z,-3.02
2024-01-19T19:33:49.757Z,-3.02
2024-01-19T19:36:16.920Z,-3.02
2024-01-19T19:38:45.789Z,-3.03
2024-01-19T19:41:14.056Z,-3.03
2024-01-19T19:43:41.902Z,-3.02
2024-01-19T19:46:15.354Z,-3.01
2024-01-19T19:48:43.883Z,-3.03
2024-01-19T19:51:11.563Z,-3.04
2024-01-19T19:53:39.279Z,-3.05
2024-01-19T19:56:09.405Z,-3.05
2024-01-19T19:58:39.370Z,-3.04
2024-01-19T20:01:11.094Z,-3.03
2024-01-19T20:03:40.342Z,-3.03
2024-01-19T20:06:10.974Z,-3.03
2024-01-19T20:08:38.053Z,-3.04
2024-01-19T20:11:07.472Z,-3.05
2024-01-19T20:13:35.155Z,-3.04
2024-01-19T20:16:02.526Z,-3.04
2024-01-19T20:18:31.405Z,-3.05
2024-01-19T20:20:59.441Z,-3.06
2024-01-19T20:23:27.265Z,-3.07
2024-01-19T20:25:54.744Z,-3.06
2024-01-19T20:28:22.684Z,-3.05
2024-01-19T20:30:49.944Z,-3.05
2024-01-19T20:33:18.024Z,-3.02
2024-01-19T20:35:46.421Z,-3.01
2024-01-19T20:38:14.351Z,-3.02
2024-01-19T20:40:42.572Z,-3.01
2024-01-19T20:43:10.777Z,-3.00
2024-01-19T20:45:41.225Z,-3.01
2024-01-19T20:48:08.461Z,-3.03
2024-01-19T20:50:35.541Z,-3.03
2024-01-19T20:53:05.149Z,-3.02
2024-01-19T20:55:32.689Z,-3.02
2024-01-19T20:58:01.772Z,-3.01
2024-01-19T21:00:30.168Z,-3.00
2024-01-19T21:02:57.731Z,-3.00
2024-01-19T21:05:25.158Z,-2.99
2024-01-19T21:07:55.588Z,-2.97
2024-01-19T21:10:27.156Z,-2.97
2024-01-19T21:12:56.604Z,-2.99
2024-01-19T21:15:26.096Z,-3.00
2024-01-19T21:17:55.077Z,-3.01
2024-01-19T21:20:24.695Z,-3.00
2024-01-19T21:22:53.583Z,-3.01
2024-01-19T21:25:22.053Z,-3.02
2024-01-19T21:27:49.497Z,-2.99
2024-01-19T21:30:17.065Z,-2.96
2024-01-19T21:32:44.327Z,-2.96
2024-01-19T21:35:11.906Z,-2.98
2024-01-19T21:37:40.056Z,-2.97
2024-01-19T21:40:12.276Z,-2.99
2024-01-19T21:42:45.788Z,-2.99
2024-01-19T21:45:15.039Z,-2.99
2024-01-19T21:47:44.134Z,-2.99
2024-01-19T21:50:12.172Z,-2.98
2024-01-19T21:52:40.457Z,-2.99
2024-01-19T21:55:08.459Z,-3.01
2024-01-19T21:57:36.837Z,-3.03
2024-01-19T22:00:04.855Z,-3.02
2024-01-19T22:02:32.555Z,-3.03
2024-01-19T22:05:01.165Z,-3.03
2024-01-19T22:07:28.434Z,-3.03
2024-01-19T22:09:59.784Z,-3.03
2024-01-19T22:12:27.129Z,-3.03
2024-01-19T22:14:54.305Z,-3.02
2024-01-19T22:17:21.935Z,-3.01
2024-01-19T22:19:50.294Z,-3.01
2024-01-19T22:22:17.639Z,-3.01
2024-01-19T22:24:44.798Z,-3.01
2024-01-19T22:27:11.983Z,-2.98
2024-01-19T22:29:39.877Z,-2.98
2024-01-19T22:32:07.435Z,-2.98
2024-01-19T22:34:34.784Z,-2.97
2024-01-19T22:37:02.639Z,-2.98
2024-01-19T22:39:30.320Z,-2.95
2024-01-19T22:41:58.400Z,-2.99
2024-01-19T22:44:25.813Z,-3.00
2024-01-19T22:46:53.351Z,-3.01
2024-01-19T22:49:21.059Z,-3.01
2024-01-19T22:51:48.394Z,-3.00
2024-01-19T22:54:15.630Z,-2.99
2024-01-19T22:56:43.115Z,-2.99
2024-01-19T22:59:10.876Z,-3.01
2024-01-19T23:01:38.135Z,-2.99
2024-01-19T23:04:05.898Z,-3.00
2024-01-19T23:06:33.193Z,-2.99
2024-01-19T23:09:01.046Z,-3.00
2024-01-19T23:11:29.712Z,-2.98
2024-01-19T23:13:57.509Z,-2.99
2024-01-19T23:16:24.725Z,-3.00
2024-01-19T23:18:52.474Z,-3.01
2024-01-19T23:21:20.020Z,-3.01
2024-01-19T23:23:47.665Z,-2.99
2024-01-19T23:26:15.115Z,-3.01
2024-01-19T23:28:43.089Z,-3.00
2024-01-19T23:31:13.662Z,-2.99
2024-01-19T23:33:41.461Z,-2.97
2024-01-19T23:36:12.091Z,-2.94
2024-01-19T23:38:40.314Z,-2.93
2024-01-19T23:41:07.690Z,-2.90
2024-01-19T23:43:35.345Z,-2.91
2024-01-19T23:46:03.068Z,-2.94
2024-01-19T23:48:30.238Z,-2.93
2024-01-19T23:50:57.449Z,-2.93
2024-01-19T23:53:24.769Z,-2.94
2024-01-19T23:55:51.986Z,-2.92
2024-01-19T23:58:19.029Z,-2.93
